Time;durP1;ratioP1;P1;durP2;ratioP2;P2;SDS_P1;SDS_P2;PMS_P1;PMS_P2;Temp;Humidity;BMP_temperature;BMP_pressure;BME280_temperature;BME280_humidity;BME280_pressure;Samples;Min_cycle;Max_cycle;Signal;HPM_P1;HPM_P2
2023/04/07 00:01:24;;;;;;;0.40;0.40;;;6.10;99.90;;;;;;4991192;28;20069;-75
2023/04/07 00:03:51;;;;;;;0.88;0.60;;;6.10;99.90;;;;;;5008993;28;20117;-75
2023/04/07 00:06:18;;;;;;;0.40;0.40;;;6.10;99.90;;;;;;5005789;28;20668;-74
2023/04/07 00:08:45;;;;;;;0.73;0.50;;;6.10;99.90;;;;;;5009694;28;20071;-74
2023/04/07 00:11:12;;;;;;;0.68;0.50;;;6.00;99.90;;;;;;5004486;28;20056;-74
2023/04/07 00:13:39;;;;;;;0.30;0.30;;;6.00;99.90;;;;;;5007814;28;20049;-75
2023/04/07 00:16:06;;;;;;;0.50;0.50;;;6.00;99.90;;;;;;5007121;28;20049;-74
2023/04/07 00:18:33;;;;;;;0.40;0.40;;;6.00;99.90;;;;;;4991952;28;20049;-74
2023/04/07 00:20:59;;;;;;;1.20;0.57;;;5.90;99.90;;;;;;5005935;28;20527;-73
2023/04/07 00:23:26;;;;;;;0.77;0.45;;;5.90;99.90;;;;;;5001589;28;20128;-73
2023/04/07 00:25:53;;;;;;;1.17;0.60;;;5.90;99.90;;;;;;4989719;28;20081;-75
2023/04/07 00:28:20;;;;;;;0.50;0.50;;;5.90;99.90;;;;;;4989335;28;20129;-73
2023/04/07 00:30:47;;;;;;;0.65;0.43;;;5.80;99.90;;;;;;4987990;28;20092;-73
2023/04/07 00:33:14;;;;;;;0.50;0.50;;;5.80;99.90;;;;;;4975324;28;20130;-74
2023/04/07 00:35:41;;;;;;;2.08;0.63;;;5.80;99.90;;;;;;5007731;28;20064;-73
2023/04/07 00:38:08;;;;;;;0.43;0.43;;;5.80;99.90;;;;;;5006200;28;20141;-74
2023/04/07 00:40:35;;;;;;;0.40;0.40;;;5.80;99.90;;;;;;5007723;28;20180;-73
2023/04/07 00:43:02;;;;;;;0.90;0.52;;;5.80;99.90;;;;;;5007859;28;20060;-76
2023/04/07 00:45:29;;;;;;;0.85;0.60;;;5.80;99.90;;;;;;5008901;28;20128;-75
2023/04/07 00:47:57;;;;;;;0.60;0.60;;;5.80;99.90;;;;;;4995893;28;20157;-74
2023/04/07 00:50:24;;;;;;;0.82;0.50;;;5.80;99.90;;;;;;4996617;28;20112;-73
2023/04/07 00:52:51;;;;;;;0.40;0.40;;;5.70;99.90;;;;;;5012492;28;20059;-74
2023/04/07 00:55:18;;;;;;;0.82;0.50;;;5.70;99.90;;;;;;5007262;28;20603;-73
2023/04/07 00:57:45;;;;;;;0.40;0.40;;;5.60;99.90;;;;;;5011173;28;20047;-73
2023/04/07 01:00:12;;;;;;;0.63;0.50;;;5.60;99.90;;;;;;5010770;28;20060;-74
2023/04/07 01:02:44;;;;;;;0.63;0.63;;;5.60;99.90;;;;;;5007195;28;20056;-73
2023/04/07 01:05:23;;;;;;;0.55;0.50;;;5.50;99.90;;;;;;4993016;28;20077;-73
2023/04/07 01:08:02;;;;;;;1.25;0.77;;;5.50;99.90;;;;;;5007373;28;20046;-73
2023/04/07 01:10:51;;;;;;;0.73;0.50;;;5.40;99.90;;;;;;5010867;28;20073;-73
2023/04/07 01:13:23;;;;;;;0.63;0.60;;;5.50;99.90;;;;;;5007072;28;20045;-73
2023/04/07 01:15:51;;;;;;;0.60;0.60;;;5.40;99.90;;;;;;5008260;28;20057;-74
2023/04/07 01:18:28;;;;;;;1.00;0.70;;;5.50;99.90;;;;;;5007247;28;20049;-74
2023/04/07 01:20:59;;;;;;;1.83;0.90;;;5.50;99.90;;;;;;5006599;28;20077;-73
2023/04/07 01:24:02;;;;;;;0.70;0.60;;;5.50;99.90;;;;;;5010628;28;20054;-73
2023/04/07 01:26:30;;;;;;;2.30;0.85;;;5.50;99.90;;;;;;5010177;28;20056;-73
2023/04/07 01:29:34;;;;;;;0.73;0.60;;;5.50;99.90;;;;;;5009733;28;20045;-74
2023/04/07 01:32:02;;;;;;;0.75;0.70;;;5.50;99.90;;;;;;4664573;28;10000027;-73
2023/04/07 01:34:30;;;;;;;1.67;1.33;;;5.40;99.90;;;;;;4998843;28;20485;-73
2023/04/07 01:36:57;;;;;;;1.15;1.05;;;5.50;99.90;;;;;;5015375;28;20584;-73
2023/04/07 01:39:26;;;;;;;1.55;1.17;;;5.40;99.90;;;;;;4998874;28;20611;-73
2023/04/07 01:41:54;;;;;;;1.08;0.90;;;5.40;99.90;;;;;;5015786;28;20387;-74
2023/04/07 01:44:20;;;;;;;1.02;0.80;;;5.40;99.90;;;;;;5015333;28;20553;-73
2023/04/07 01:46:49;;;;;;;1.27;0.70;;;5.40;99.90;;;;;;5006227;28;20160;-74
2023/04/07 01:49:16;;;;;;;0.85;0.60;;;5.40;99.90;;;;;;5018508;28;20461;-74
2023/04/07 01:51:43;;;;;;;1.13;0.68;;;5.40;99.90;;;;;;5010175;28;20054;-73
2023/04/07 01:54:10;;;;;;;0.98;0.68;;;5.30;99.90;;;;;;5015785;28;20124;-73
2023/04/07 01:56:37;;;;;;;0.95;0.80;;;5.30;99.90;;;;;;5015465;28;20049;-73
2023/04/07 01:59:03;;;;;;;0.60;0.60;;;5.30;99.90;;;;;;5019335;28;20132;-73
2023/04/07 02:01:30;;;;;;;0.73;0.60;;;5.30;99.90;;;;;;5010633;28;20140;-73
2023/04/07 02:04:10;;;;;;;0.73;0.50;;;5.20;99.90;;;;;;5014529;28;20069;-73
2023/04/07 02:06:52;;;;;;;1.38;0.77;;;5.20;99.90;;;;;;5013098;28;20057;-73
2023/04/07 02:09:20;;;;;;;0.63;0.50;;;5.20;99.90;;;;;;4999204;28;20132;-73
2023/04/07 02:11:46;;;;;;;0.80;0.77;;;5.20;99.90;;;;;;4994684;28;20440;-73
2023/04/07 02:14:14;;;;;;;1.33;1.00;;;5.10;99.90;;;;;;5016169;28;20064;-73
2023/04/07 02:16:41;;;;;;;0.73;0.73;;;5.10;99.90;;;;;;4999639;28;20046;-73
2023/04/07 02:19:08;;;;;;;0.40;0.40;;;5.10;99.90;;;;;;5011158;28;20037;-73
2023/04/07 02:21:35;;;;;;;0.52;0.50;;;5.00;99.90;;;;;;4995193;28;20644;-73
2023/04/07 02:24:05;;;;;;;1.10;0.70;;;5.00;99.90;;;;;;5012934;28;20142;-73
2023/04/07 02:26:36;;;;;;;0.40;0.40;;;5.00;99.90;;;;;;5014163;28;20080;-73
2023/04/07 02:29:03;;;;;;;1.10;0.90;;;5.00;99.90;;;;;;5005014;28;20069;-73
2023/04/07 02:31:30;;;;;;;0.82;0.50;;;5.00;99.90;;;;;;5013012;28;20119;-73
2023/04/07 02:33:56;;;;;;;0.73;0.57;;;4.90;99.90;;;;;;5013424;28;20966;-73
2023/04/07 02:36:23;;;;;;;0.77;0.68;;;4.90;99.90;;;;;;5009202;28;20062;-73
2023/04/07 02:38:50;;;;;;;0.43;0.40;;;4.90;99.90;;;;;;5013265;28;20614;-73
2023/04/07 02:41:17;;;;;;;0.65;0.50;;;4.90;99.90;;;;;;5010587;28;20137;-73
2023/04/07 02:43:44;;;;;;;0.57;0.55;;;4.90;99.90;;;;;;5011753;28;20120;-73
2023/04/07 02:46:11;;;;;;;1.13;0.60;;;4.90;99.90;;;;;;5012347;28;20184;-73
2023/04/07 02:48:39;;;;;;;1.02;0.60;;;4.90;99.90;;;;;;5010232;28;20403;-73
2023/04/07 02:51:06;;;;;;;1.67;0.65;;;4.90;99.90;;;;;;4998312;28;20056;-74
2023/04/07 02:53:33;;;;;;;0.70;0.50;;;4.90;99.90;;;;;;5009975;28;20057;-74
2023/04/07 02:55:59;;;;;;;0.50;0.50;;;4.80;99.90;;;;;;5011208;28;20057;-74
2023/04/07 02:58:26;;;;;;;0.80;0.65;;;4.80;99.90;;;;;;5015256;28;20053;-74
2023/04/07 03:00:53;;;;;;;0.60;0.60;;;4.80;99.90;;;;;;5012408;28;20081;-74
2023/04/07 03:03:20;;;;;;;1.50;0.85;;;4.80;99.90;;;;;;5010324;28;20144;-73
2023/04/07 03:05:47;;;;;;;0.68;0.60;;;4.80;99.90;;;;;;5008163;28;20125;-74
2023/04/07 03:08:14;;;;;;;0.65;0.52;;;4.80;99.90;;;;;;5010655;28;20041;-73
2023/04/07 03:10:41;;;;;;;0.90;0.80;;;4.80;99.90;;;;;;5012389;28;20084;-73
2023/04/07 03:13:07;;;;;;;1.23;0.70;;;4.80;99.90;;;;;;5011060;28;20898;-73
2023/04/07 03:15:34;;;;;;;1.77;0.60;;;4.80;99.90;;;;;;5010079;28;20136;-73
2023/04/07 03:18:01;;;;;;;1.77;0.70;;;4.70;99.90;;;;;;5011062;28;20117;-73
2023/04/07 03:20:28;;;;;;;0.98;0.60;;;4.70;99.90;;;;;;5002860;28;20504;-74
2023/04/07 03:22:54;;;;;;;0.77;0.68;;;4.70;99.90;;;;;;5012374;28;20050;-73
2023/04/07 03:25:21;;;;;;;0.68;0.57;;;4.80;99.90;;;;;;5009432;28;20091;-73
2023/04/07 03:27:48;;;;;;;0.73;0.60;;;4.80;99.90;;;;;;5014912;28;20167;-73
2023/04/07 03:30:15;;;;;;;1.10;0.77;;;4.80;99.90;;;;;;5011539;28;20056;-73
2023/04/07 03:32:42;;;;;;;0.60;0.60;;;4.80;99.90;;;;;;5016810;28;20046;-74
2023/04/07 03:35:09;;;;;;;0.75;0.60;;;4.80;99.90;;;;;;4662552;28;9999656;-74
2023/04/07 03:37:35;;;;;;;1.08;0.70;;;4.90;99.90;;;;;;5012025;28;20130;-73
2023/04/07 03:40:02;;;;;;;0.47;0.47;;;4.90;99.90;;;;;;4998881;28;20044;-73
2023/04/07 03:42:29;;;;;;;0.90;0.70;;;5.00;99.90;;;;;;4998689;28;20050;-74
2023/04/07 03:44:56;;;;;;;0.88;0.50;;;5.20;99.90;;;;;;5014028;28;20512;-73
2023/04/07 03:47:23;;;;;;;0.82;0.82;;;5.30;99.90;;;;;;5013669;28;20046;-73
2023/04/07 03:49:49;;;;;;;0.52;0.50;;;5.40;99.90;;;;;;5013725;28;20653;-73
2023/04/07 03:52:16;;;;;;;0.50;0.50;;;5.50;99.90;;;;;;5014066;28;20045;-75
2023/04/07 03:54:43;;;;;;;0.70;0.60;;;5.50;99.90;;;;;;5015311;28;20157;-74
2023/04/07 03:57:10;;;;;;;0.50;0.50;;;5.60;99.90;;;;;;5016895;28;20065;-73
2023/04/07 03:59:37;;;;;;;0.50;0.45;;;5.70;99.90;;;;;;5014474;28;20048;-74
2023/04/07 04:02:05;;;;;;;0.70;0.60;;;5.70;99.90;;;;;;5014503;28;20092;-73
2023/04/07 04:04:31;;;;;;;0.82;0.60;;;5.80;99.90;;;;;;5018272;28;20046;-73
2023/04/07 04:06:58;;;;;;;0.60;0.60;;;5.70;99.90;;;;;;5012358;28;20144;-74
2023/04/07 04:09:25;;;;;;;0.60;0.60;;;5.80;99.90;;;;;;5013056;28;20103;-73
2023/04/07 04:11:52;;;;;;;0.45;0.45;;;5.80;99.90;;;;;;5012683;28;20056;-74
2023/04/07 04:14:18;;;;;;;1.42;0.70;;;5.80;99.90;;;;;;5010694;28;20042;-74
2023/04/07 04:16:45;;;;;;;1.00;0.77;;;5.90;99.90;;;;;;5013628;28;20606;-74
2023/04/07 04:19:12;;;;;;;1.40;0.60;;;5.90;99.90;;;;;;5016784;28;20050;-74
2023/04/07 04:21:38;;;;;;;0.70;0.50;;;5.90;99.90;;;;;;5013012;28;20076;-74
2023/04/07 04:24:05;;;;;;;1.00;0.73;;;5.90;99.90;;;;;;5016633;28;20046;-74
2023/04/07 04:26:32;;;;;;;0.68;0.50;;;5.90;99.90;;;;;;5017931;28;20113;-73
2023/04/07 04:28:59;;;;;;;1.13;0.60;;;6.00;99.90;;;;;;5018108;28;20129;-73
2023/04/07 04:31:26;;;;;;;0.98;0.60;;;6.00;99.90;;;;;;5019596;28;20403;-74
2023/04/07 04:33:53;;;;;;;1.30;0.93;;;5.90;99.90;;;;;;5039383;28;20053;-74
2023/04/07 04:36:20;;;;;;;0.75;0.63;;;5.80;99.90;;;;;;5011265;28;20049;-74
2023/04/07 04:38:47;;;;;;;1.13;0.73;;;5.80;99.90;;;;;;5041265;28;20077;-74
2023/04/07 04:41:13;;;;;;;0.70;0.70;;;5.70;99.90;;;;;;5021669;28;20125;-74
2023/04/07 04:43:40;;;;;;;0.63;0.60;;;5.70;99.90;;;;;;5020707;28;20052;-74
2023/04/07 04:46:08;;;;;;;0.88;0.52;;;5.60;99.90;;;;;;5027413;28;20081;-74
2023/04/07 04:48:34;;;;;;;1.00;0.82;;;5.60;99.90;;;;;;5022128;28;20077;-74
2023/04/07 04:51:01;;;;;;;0.50;0.50;;;5.50;99.90;;;;;;5025163;28;20052;-74
2023/04/07 04:53:28;;;;;;;0.95;0.70;;;5.40;99.90;;;;;;5025891;28;20069;-74
2023/04/07 04:55:55;;;;;;;0.65;0.65;;;5.40;99.90;;;;;;5025067;28;20603;-74
2023/04/07 04:58:22;;;;;;;1.30;0.73;;;5.30;99.90;;;;;;5026691;28;20085;-74
2023/04/07 05:00:48;;;;;;;0.65;0.52;;;5.30;99.90;;;;;;4999485;28;20117;-74
2023/04/07 05:03:15;;;;;;;0.65;0.60;;;5.30;99.90;;;;;;5011425;28;20114;-74
2023/04/07 05:05:42;;;;;;;0.68;0.60;;;5.30;99.90;;;;;;4995117;28;20053;-73
2023/04/07 05:08:10;;;;;;;0.70;0.70;;;5.20;99.90;;;;;;5003880;28;20136;-74
2023/04/07 05:10:40;;;;;;;0.93;0.73;;;5.20;99.90;;;;;;5022270;28;20049;-74
2023/04/07 05:13:06;;;;;;;0.70;0.70;;;5.20;99.90;;;;;;5020726;28;20084;-74
2023/04/07 05:15:33;;;;;;;1.00;0.70;;;5.10;99.90;;;;;;4989265;28;20097;-74
2023/04/07 05:18:00;;;;;;;0.60;0.60;;;5.10;99.90;;;;;;5020888;28;20045;-74
2023/04/07 05:20:27;;;;;;;0.95;0.70;;;5.10;99.90;;;;;;5018937;28;20111;-74
2023/04/07 05:22:54;;;;;;;0.60;0.50;;;5.10;99.90;;;;;;5020981;28;20385;-74
2023/04/07 05:25:20;;;;;;;1.13;0.77;;;5.00;99.90;;;;;;5006858;28;20549;-74
2023/04/07 05:27:47;;;;;;;0.80;0.73;;;5.00;99.90;;;;;;5017871;28;20077;-74
2023/04/07 05:30:15;;;;;;;0.60;0.55;;;5.00;99.90;;;;;;5008388;28;20045;-74
2023/04/07 05:32:41;;;;;;;0.55;0.55;;;5.00;99.90;;;;;;5012981;28;20053;-74
2023/04/07 05:35:09;;;;;;;0.55;0.55;;;4.90;99.90;;;;;;5013569;28;20129;-74
2023/04/07 05:37:36;;;;;;;0.50;0.50;;;4.90;99.90;;;;;;5020307;28;20085;-75
2023/04/07 05:40:02;;;;;;;0.65;0.60;;;4.90;99.90;;;;;;5012980;28;20045;-74
2023/04/07 05:42:29;;;;;;;0.73;0.40;;;4.90;99.90;;;;;;5012427;28;20405;-74
2023/04/07 05:44:56;;;;;;;0.57;0.50;;;5.00;99.90;;;;;;4993690;28;20133;-74
2023/04/07 05:47:23;;;;;;;0.60;0.50;;;5.10;99.90;;;;;;5013219;28;20049;-75
2023/04/07 05:49:50;;;;;;;0.85;0.60;;;5.10;99.90;;;;;;5001132;28;20041;-74
2023/04/07 05:52:16;;;;;;;1.00;0.70;;;5.30;99.90;;;;;;4993010;28;20122;-74
2023/04/07 05:54:43;;;;;;;0.98;0.75;;;5.30;99.90;;;;;;4976182;28;20050;-75
2023/04/07 05:57:10;;;;;;;0.80;0.70;;;5.40;99.90;;;;;;5016220;28;20041;-75
2023/04/07 05:59:37;;;;;;;1.23;1.13;;;5.50;99.90;;;;;;5000736;28;20064;-74
2023/04/07 06:02:04;;;;;;;0.82;0.70;;;5.50;99.90;;;;;;4989405;28;20045;-75
2023/04/07 06:04:32;;;;;;;0.57;0.57;;;5.60;99.90;;;;;;4993318;28;20081;-75
2023/04/07 06:07:00;;;;;;;0.68;0.63;;;5.70;99.90;;;;;;5006119;28;20671;-75
2023/04/07 06:09:27;;;;;;;0.50;0.50;;;5.80;99.90;;;;;;4996947;28;20053;-73
2023/04/07 06:11:55;;;;;;;1.00;0.60;;;5.80;99.90;;;;;;5015540;28;20102;-74
2023/04/07 06:14:22;;;;;;;0.95;0.52;;;5.90;99.90;;;;;;4989490;28;20077;-74
2023/04/07 06:16:49;;;;;;;1.08;0.70;;;5.90;99.90;;;;;;4973121;28;20141;-80
2023/04/07 06:19:16;;;;;;;1.10;0.63;;;6.00;99.90;;;;;;5005718;28;20048;-79
2023/04/07 06:21:43;;;;;;;0.52;0.50;;;6.00;99.90;;;;;;4989326;28;20064;-80
2023/04/07 06:24:10;;;;;;;0.65;0.45;;;5.90;99.90;;;;;;4987877;28;20068;-80
2023/04/07 06:26:38;;;;;;;2.45;0.70;;;5.90;99.90;;;;;;5010476;28;20341;-80
2023/04/07 06:29:06;;;;;;;0.90;0.60;;;5.90;99.90;;;;;;5003602;28;20056;-81
2023/04/07 06:31:32;;;;;;;1.27;0.70;;;5.80;99.90;;;;;;5000378;28;20124;-81
2023/04/07 06:33:59;;;;;;;0.93;0.70;;;5.80;99.90;;;;;;5005628;28;20136;-80
2023/04/07 06:36:27;;;;;;;0.60;0.52;;;5.70;99.90;;;;;;4990852;28;20046;-80
2023/04/07 06:38:55;;;;;;;0.82;0.65;;;5.70;99.90;;;;;;4990953;28;20129;-78
2023/04/07 06:41:21;;;;;;;0.85;0.77;;;5.70;99.90;;;;;;4975035;28;20041;-79
2023/04/07 06:43:50;;;;;;;0.90;0.70;;;5.70;99.90;;;;;;5005172;28;20894;-78
2023/04/07 06:46:17;;;;;;;0.98;0.60;;;5.70;99.90;;;;;;5002218;28;20089;-79
2023/04/07 06:48:45;;;;;;;1.25;0.80;;;5.70;99.90;;;;;;4972430;28;20087;-78
2023/04/07 06:51:13;;;;;;;0.85;0.70;;;5.80;99.90;;;;;;4992231;28;20142;-79
2023/04/07 06:53:40;;;;;;;1.20;0.80;;;5.80;99.90;;;;;;5005305;28;20050;-80
2023/04/07 06:56:11;;;;;;;2.55;0.90;;;5.80;99.90;;;;;;4990533;28;20089;-81
2023/04/07 06:58:38;;;;;;;0.68;0.68;;;5.80;99.90;;;;;;4990923;28;20057;-80
2023/04/07 07:01:05;;;;;;;0.90;0.80;;;5.90;99.90;;;;;;4992105;28;20052;-81
2023/04/07 07:03:32;;;;;;;0.65;0.57;;;5.90;99.90;;;;;;4986117;28;20057;-81
2023/04/07 07:06:00;;;;;;;2.08;1.23;;;5.90;99.90;;;;;;4995121;28;20755;-81
2023/04/07 07:08:28;;;;;;;1.00;0.65;;;6.00;99.90;;;;;;5016058;28;20058;-81
2023/04/07 07:10:55;;;;;;;1.33;0.57;;;6.00;99.90;;;;;;5006513;28;20651;-81
2023/04/07 07:13:23;;;;;;;1.38;0.80;;;6.10;99.90;;;;;;5009526;28;20394;-80
2023/04/07 07:15:50;;;;;;;0.70;0.70;;;6.10;99.90;;;;;;4992776;28;20140;-79
2023/04/07 07:18:17;;;;;;;1.58;0.90;;;6.20;99.90;;;;;;5012775;28;20060;-80
2023/04/07 07:20:44;;;;;;;1.73;0.93;;;6.20;99.90;;;;;;4985950;28;20395;-80
2023/04/07 07:23:11;;;;;;;0.93;0.60;;;6.30;99.90;;;;;;4972729;28;20881;-81
2023/04/07 07:25:38;;;;;;;1.20;1.00;;;6.30;99.90;;;;;;4971417;28;20797;-81
2023/04/07 07:28:08;;;;;;;1.13;0.60;;;6.40;99.90;;;;;;5018347;28;20099;-80
2023/04/07 07:30:35;;;;;;;1.23;0.77;;;6.50;99.90;;;;;;5009077;28;20059;-81
2023/04/07 07:33:02;;;;;;;1.20;0.80;;;6.50;99.90;;;;;;4982022;28;20042;-81
2023/04/07 07:35:31;;;;;;;1.27;1.10;;;6.60;99.90;;;;;;5004355;28;20200;-80
2023/04/07 07:37:58;;;;;;;1.30;1.00;;;6.60;99.90;;;;;;5002668;28;20149;-81
2023/04/07 07:40:25;;;;;;;2.70;1.00;;;6.70;99.90;;;;;;4997888;28;20374;-81
2023/04/07 07:42:52;;;;;;;1.42;0.70;;;6.80;99.90;;;;;;5008121;28;20136;-82
2023/04/07 07:45:18;;;;;;;1.83;1.10;;;6.80;99.90;;;;;;4994134;28;20165;-82
2023/04/07 07:47:45;;;;;;;1.90;0.80;;;6.90;99.90;;;;;;4995006;28;20104;-82
2023/04/07 07:50:13;;;;;;;1.70;1.00;;;7.00;99.90;;;;;;5003503;28;20208;-80
2023/04/07 07:52:40;;;;;;;1.85;1.10;;;7.10;99.90;;;;;;5007826;28;20077;-80
2023/04/07 07:55:07;;;;;;;2.47;0.98;;;7.10;99.90;;;;;;4986062;28;20064;-80
2023/04/07 07:57:35;;;;;;;1.83;1.08;;;7.20;99.90;;;;;;4997972;28;20169;-79
2023/04/07 08:00:03;;;;;;;1.60;0.93;;;7.20;99.90;;;;;;4996853;28;20128;-79
2023/04/07 08:02:30;;;;;;;1.67;1.10;;;7.30;99.90;;;;;;4978768;28;20076;-81
2023/04/07 08:04:57;;;;;;;1.50;1.00;;;7.40;99.90;;;;;;4990669;28;20049;-80
2023/04/07 08:07:24;;;;;;;0.95;0.85;;;7.50;99.90;;;;;;4966850;28;20505;-78
2023/04/07 08:09:51;;;;;;;2.10;1.10;;;7.50;99.90;;;;;;4998838;28;20387;-78
2023/04/07 08:12:17;;;;;;;1.55;0.90;;;7.60;99.90;;;;;;5002541;28;20055;-78
2023/04/07 08:14:44;;;;;;;2.03;1.17;;;7.60;99.90;;;;;;5000090;28;20124;-77
2023/04/07 08:17:11;;;;;;;1.85;1.10;;;7.70;99.90;;;;;;4988522;28;20061;-79
2023/04/07 08:19:38;;;;;;;1.10;0.70;;;7.80;99.90;;;;;;4985198;28;20542;-76
2023/04/07 08:22:05;;;;;;;1.25;1.02;;;7.90;99.90;;;;;;4988520;28;20053;-77
2023/04/07 08:24:32;;;;;;;1.20;1.00;;;8.00;99.90;;;;;;4985727;28;20075;-78
2023/04/07 08:26:58;;;;;;;2.65;1.67;;;8.10;99.90;;;;;;4989390;28;20050;-79
2023/04/07 08:29:25;;;;;;;2.90;1.25;;;8.10;99.90;;;;;;5003243;28;20745;-80
2023/04/07 08:31:52;;;;;;;4.13;1.25;;;8.20;99.90;;;;;;4987487;28;20045;-77
2023/04/07 08:34:20;;;;;;;5.72;1.35;;;8.30;99.90;;;;;;5005267;28;20057;-78
2023/04/07 08:36:47;;;;;;;2.17;1.23;;;8.30;99.90;;;;;;4994931;28;20064;-77
2023/04/07 08:39:13;;;;;;;2.90;1.60;;;8.30;99.90;;;;;;5001043;28;20125;-79
2023/04/07 08:41:41;;;;;;;1.92;1.38;;;8.40;99.90;;;;;;5004293;28;20057;-79
2023/04/07 08:44:10;;;;;;;3.10;1.65;;;8.50;99.90;;;;;;5011348;28;20404;-79
2023/04/07 08:46:37;;;;;;;2.33;1.35;;;8.60;99.90;;;;;;5011520;28;20049;-79
2023/04/07 08:49:12;;;;;;;2.08;1.20;;;8.70;99.90;;;;;;5007357;28;20469;-79
2023/04/07 08:51:46;;;;;;;1.20;0.90;;;8.80;99.90;;;;;;4993318;28;20469;-78
2023/04/07 08:54:15;;;;;;;;;;;8.80;99.90;;;;;;4992733;28;20054;-79
2023/04/07 08:56:42;;;;;;;2.83;1.42;;;8.90;99.90;;;;;;4994971;28;20109;-79
2023/04/07 08:59:13;;;;;;;3.72;1.65;;;9.10;99.90;;;;;;4998144;28;20163;-78
2023/04/07 09:01:40;;;;;;;2.60;1.30;;;9.20;99.90;;;;;;5006154;28;20217;-79
2023/04/07 09:04:08;;;;;;;1.80;1.10;;;9.20;99.90;;;;;;4989967;28;20433;-78
2023/04/07 09:06:35;;;;;;;3.78;1.48;;;9.30;99.90;;;;;;4988440;28;20050;-79
2023/04/07 09:09:04;;;;;;;2.40;1.65;;;9.30;99.90;;;;;;4975432;28;20052;-78
2023/04/07 09:11:34;;;;;;;2.72;1.50;;;9.40;99.90;;;;;;4971712;28;20049;-77
2023/04/07 09:14:01;;;;;;;4.03;1.85;;;9.40;99.90;;;;;;4976254;28;20504;-85
2023/04/07 09:16:29;;;;;;;2.97;1.30;;;9.50;99.90;;;;;;5013790;28;20062;-83
2023/04/07 09:18:57;;;;;;;1.70;1.38;;;9.60;99.90;;;;;;5017656;28;20137;-85
2023/04/07 09:21:24;;;;;;;2.17;1.25;;;9.70;99.90;;;;;;5015698;28;20060;-86
2023/04/07 09:23:51;;;;;;;2.00;1.40;;;9.80;99.90;;;;;;4994638;28;20065;-85
2023/04/07 09:26:23;;;;;;;1.58;0.98;;;9.80;99.90;;;;;;5003097;28;20519;-85
2023/04/07 09:29:01;;;;;;;2.50;1.30;;;9.80;99.90;;;;;;5016719;28;20130;-86
2023/04/07 09:31:49;;;;;;;2.15;1.30;;;9.90;99.90;;;;;;5001379;28;20125;-84
2023/04/07 09:34:30;;;;;;;4.30;1.60;;;9.90;99.90;;;;;;5008969;28;20046;-85
2023/04/07 09:36:57;;;;;;;3.80;1.30;;;10.10;99.90;;;;;;5030364;28;20067;-85
2023/04/07 09:39:24;;;;;;;3.75;1.40;;;10.00;99.90;;;;;;5005199;28;20050;-85
2023/04/07 09:41:51;;;;;;;3.35;1.42;;;10.20;99.90;;;;;;4979094;28;20140;-87
2023/04/07 09:44:19;;;;;;;2.08;1.10;;;10.30;99.90;;;;;;4997886;28;20054;-84
2023/04/07 09:46:56;;;;;;;1.25;0.90;;;10.40;99.90;;;;;;5007953;28;20144;-84
2023/04/07 09:49:24;;;;;;;1.15;0.80;;;10.40;99.90;;;;;;4991305;28;20065;-80
2023/04/07 09:52:06;;;;;;;1.98;1.30;;;10.50;99.90;;;;;;5005666;28;20065;-82
2023/04/07 09:54:37;;;;;;;1.93;1.23;;;10.60;99.90;;;;;;4988944;28;20049;-81
2023/04/07 09:57:06;;;;;;;2.10;1.10;;;10.80;99.90;;;;;;4998614;28;20305;-81
2023/04/07 09:59:36;;;;;;;2.10;1.40;;;10.90;99.90;;;;;;4991039;28;20474;-79
2023/04/07 10:02:04;;;;;;;2.28;1.20;;;11.00;99.90;;;;;;5006810;28;20560;-78
2023/04/07 10:04:31;;;;;;;2.72;1.40;;;11.20;99.90;;;;;;5002672;28;20119;-79
2023/04/07 10:06:59;;;;;;;3.95;1.70;;;11.40;99.90;;;;;;5000840;28;20064;-81
2023/04/07 10:09:27;;;;;;;1.30;1.08;;;11.50;99.90;;;;;;5001898;28;20072;-80
2023/04/07 10:11:58;;;;;;;1.00;0.75;;;11.80;99.90;;;;;;5001680;28;20054;-81
2023/04/07 10:14:30;;;;;;;1.27;1.08;;;12.10;99.90;;;;;;5002469;28;20149;-79
2023/04/07 10:16:58;;;;;;;1.52;1.10;;;12.40;99.90;;;;;;5000837;28;20560;-80
2023/04/07 10:19:25;;;;;;;1.83;1.25;;;12.50;99.90;;;;;;5004677;28;20049;-80
2023/04/07 10:21:56;;;;;;;1.48;1.10;;;12.60;99.90;;;;;;5004439;28;20456;-79
2023/04/07 10:24:42;;;;;;;1.20;0.80;;;12.60;99.90;;;;;;4988401;28;20049;-79
2023/04/07 10:27:10;;;;;;;1.38;0.90;;;12.70;99.90;;;;;;5003389;28;20558;-80
2023/04/07 10:29:41;;;;;;;1.40;1.00;;;12.70;99.90;;;;;;5004539;28;20419;-81
2023/04/07 10:32:08;;;;;;;1.83;1.17;;;12.60;99.90;;;;;;5008431;28;20049;-81
2023/04/07 10:35:01;;;;;;;1.23;0.80;;;12.80;99.90;;;;;;5006766;28;20115;-81
2023/04/07 10:37:28;;;;;;;1.80;1.15;;;13.00;99.90;;;;;;5002659;28;20136;-79
2023/04/07 10:40:26;;;;;;;3.13;1.15;;;12.80;99.90;;;;;;4999487;28;20073;-78
2023/04/07 10:42:53;;;;;;;1.77;1.08;;;12.90;99.90;;;;;;5003290;28;20046;-80
2023/04/07 10:45:57;;;;;;;1.80;0.80;;;12.80;99.90;;;;;;5004393;28;20085;-80
2023/04/07 10:48:25;;;;;;;2.33;0.88;;;12.80;99.90;;;;;;5005620;28;20053;-81
2023/04/07 10:51:04;;;;;;;0.88;0.70;;;12.80;99.90;;;;;;5000107;28;20042;-80
2023/04/07 10:53:31;;;;;;;1.42;0.80;;;12.80;99.90;;;;;;5004907;28;20060;-80
2023/04/07 10:55:58;;;;;;;0.65;0.60;;;12.80;99.90;;;;;;5006261;28;20140;-80
2023/04/07 10:58:28;;;;;;;0.98;0.68;;;12.80;99.90;;;;;;5000153;28;20057;-78
2023/04/07 11:01:11;;;;;;;1.27;0.88;;;12.80;99.90;;;;;;5002204;28;20325;-81
2023/04/07 11:03:43;;;;;;;1.08;0.60;;;12.80;99.90;;;;;;5002645;28;20068;-81
2023/04/07 11:06:12;;;;;;;0.88;0.68;;;12.80;99.90;;;;;;4987272;28;20045;-79
2023/04/07 11:08:43;;;;;;;3.30;2.30;;;12.90;99.90;;;;;;5002822;28;20555;-80
2023/04/07 11:11:14;;;;;;;2.17;1.50;;;12.90;99.90;;;;;;5003714;28;20048;-79
2023/04/07 11:13:45;;;;;;;2.10;1.27;;;13.00;99.90;;;;;;4984204;28;20053;-79
2023/04/07 11:16:13;;;;;;;2.20;0.77;;;13.00;99.90;;;;;;4989748;28;20148;-78
2023/04/07 11:18:40;;;;;;;1.15;0.70;;;13.20;99.90;;;;;;5002915;28;20061;-80
2023/04/07 11:21:07;;;;;;;1.25;1.00;;;13.30;99.90;;;;;;4985894;28;20033;-78
2023/04/07 11:23:41;;;;;;;1.33;0.93;;;13.40;99.90;;;;;;4997442;28;20053;-80
2023/04/07 11:26:11;;;;;;;1.42;0.82;;;13.20;99.90;;;;;;4985806;28;20048;-77
2023/04/07 11:28:47;;;;;;;0.90;0.70;;;13.30;99.90;;;;;;4986642;28;20270;-76
2023/04/07 11:31:22;;;;;;;1.40;0.70;;;13.40;99.90;;;;;;4997056;28;20135;-80
2023/04/07 11:34:00;;;;;;;1.10;0.80;;;13.60;99.90;;;;;;4999024;28;20553;-81
2023/04/07 11:36:29;;;;;;;1.23;0.80;;;13.90;99.90;;;;;;4988488;28;20142;-81
2023/04/07 11:38:56;;;;;;;1.15;0.88;;;14.40;99.90;;;;;;4996844;28;20062;-81
2023/04/07 11:41:26;;;;;;;1.15;0.93;;;14.80;99.90;;;;;;4992592;28;20051;-82
2023/04/07 11:44:09;;;;;;;1.50;0.90;;;15.20;99.90;;;;;;4999702;28;20170;-81
2023/04/07 11:46:55;;;;;;;1.15;0.80;;;15.50;99.90;;;;;;4997839;28;20497;-81
2023/04/07 11:49:23;;;;;;;1.30;0.70;;;15.60;99.90;;;;;;4984186;28;20085;-80
2023/04/07 11:51:57;;;;;;;0.50;0.50;;;15.50;99.90;;;;;;4982059;28;20434;-80
2023/04/07 11:54:25;;;;;;;0.73;0.60;;;15.60;99.90;;;;;;4986897;28;20057;-80
2023/04/07 11:56:54;;;;;;;0.45;0.45;;;16.00;99.90;;;;;;4996702;28;20660;-80
2023/04/07 11:59:22;;;;;;;1.50;0.80;;;16.50;99.90;;;;;;4987166;28;21080;-79
2023/04/07 12:01:50;;;;;;;0.68;0.50;;;17.10;99.90;;;;;;4984652;28;20159;-78
2023/04/07 12:04:17;;;;;;;1.45;0.77;;;17.20;97.90;;;;;;4988097;28;20168;-81
2023/04/07 12:06:45;;;;;;;0.70;0.52;;;16.90;97.90;;;;;;4971885;28;20050;-78
2023/04/07 12:09:29;;;;;;;0.80;0.50;;;16.30;98.40;;;;;;4973235;28;20263;-78
2023/04/07 12:11:56;;;;;;;0.60;0.60;;;15.90;96.90;;;;;;5000690;28;20072;-78
2023/04/07 12:14:24;;;;;;;1.58;1.30;;;15.60;97.10;;;;;;4980912;28;20111;-80
2023/04/07 12:16:54;;;;;;;1.00;0.85;;;15.90;96.90;;;;;;5000160;28;20350;-80
2023/04/07 12:19:24;;;;;;;0.90;0.90;;;16.30;96.40;;;;;;4977619;28;20050;-80
2023/04/07 12:21:51;;;;;;;0.77;0.70;;;16.80;96.40;;;;;;4982567;28;20142;-81
2023/04/07 12:24:18;;;;;;;1.67;1.00;;;16.90;95.20;;;;;;5001043;28;20046;-79
2023/04/07 12:26:45;;;;;;;1.67;1.10;;;16.70;96.80;;;;;;4969903;28;20053;-80
2023/04/07 12:29:13;;;;;;;2.05;0.90;;;16.20;95.70;;;;;;4990538;28;20518;-81
2023/04/07 12:31:39;;;;;;;1.63;0.82;;;15.80;95.10;;;;;;4969967;28;20157;-81
2023/04/07 12:34:06;;;;;;;1.38;0.90;;;15.60;93.90;;;;;;4988091;28;20053;-79
2023/04/07 12:36:34;;;;;;;1.63;1.05;;;15.80;94.90;;;;;;4999018;28;20164;-82
2023/04/07 12:39:01;;;;;;;1.05;0.90;;;16.40;97.00;;;;;;5008090;28;20149;-78
2023/04/07 12:41:27;;;;;;;0.88;0.65;;;17.30;94.90;;;;;;4986930;28;20128;-86
2023/04/07 12:43:54;;;;;;;0.75;0.75;;;18.10;94.70;;;;;;4972945;28;20579;-82
2023/04/07 12:46:21;;;;;;;0.70;0.70;;;18.90;93.20;;;;;;5000968;28;20048;-82
2023/04/07 12:48:48;;;;;;;0.63;0.63;;;19.20;87.10;;;;;;5006678;28;20060;-83
2023/04/07 12:51:15;;;;;;;1.33;0.80;;;19.30;84.40;;;;;;4972335;28;20072;-80
2023/04/07 12:53:42;;;;;;;1.05;0.80;;;19.60;83.30;;;;;;5009642;28;20050;-83
2023/04/07 12:56:09;;;;;;;0.60;0.60;;;19.70;82.70;;;;;;4987196;28;20069;-81
2023/04/07 12:58:36;;;;;;;1.13;0.60;;;20.10;82.30;;;;;;4992740;28;20056;-82
2023/04/07 13:01:03;;;;;;;1.25;0.65;;;20.00;86.50;;;;;;4995444;28;20060;-81
2023/04/07 13:03:30;;;;;;;1.70;1.00;;;19.90;82.20;;;;;;4991529;28;20049;-79